createdAt,value
2018-03-15T00:08:44.880Z,23.40
2018-03-15T00:18:56.869Z,23.40
2018-03-15T00:29:11.263Z,23.40
2018-03-15T00:39:20.655Z,23.40
2018-03-15T00:49:30.085Z,23.40
2018-03-15T00:59:45.790Z,23.40
2018-03-15T01:10:00.261Z,23.40
2018-03-15T01:20:08.060Z,23.40
2018-03-15T01:30:20.678Z,23.40
2018-03-15T01:40:28.516Z,23.40
2018-03-15T01:50:42.090Z,23.40
2018-03-15T02:00:56.142Z,23.40
2018-03-15T02:11:07.485Z,23.40
2018-03-15T02:21:17.162Z,23.40
2018-03-15T02:31:26.407Z,23.40
2018-03-15T02:41:41.622Z,23.40
2018-03-15T02:51:52.678Z,23.40
2018-03-15T03:02:02.329Z,23.40
2018-03-15T03:12:16.020Z,23.30
2018-03-15T03:22:25.061Z,23.40
2018-03-15T03:32:33.833Z,23.30
2018-03-15T03:42:43.763Z,23.20
2018-03-15T03:52:56.373Z,23.20
2018-03-15T04:03:10.058Z,23.20
2018-03-15T04:13:19.876Z,23.20
2018-03-15T04:23:31.513Z,23.20
2018-03-15T04:33:44.951Z,23.30
2018-03-15T04:43:56.240Z,23.20
2018-03-15T04:54:11.156Z,23.20
2018-03-15T05:04:23.195Z,23.20
2018-03-15T05:14:34.833Z,23.20
2018-03-15T05:24:56.072Z,23.20
2018-03-15T05:35:09.390Z,23.20
2018-03-15T05:45:25.418Z,23.20
2018-03-15T05:55:38.678Z,23.20
2018-03-15T06:05:52.580Z,23.20
2018-03-15T06:16:02.202Z,23.20
2018-03-15T06:26:11.064Z,23.30
2018-03-15T06:36:19.545Z,22.70
2018-03-15T06:46:34.650Z,22.80
2018-03-15T06:56:44.342Z,22.70
2018-03-15T07:06:59.315Z,22.90
2018-03-15T07:17:12.878Z,22.90
2018-03-15T07:27:23.750Z,23.00
2018-03-15T07:37:34.451Z,23.00
2018-03-15T07:47:45.618Z,23.00
2018-03-15T07:57:57.310Z,23.00
2018-03-15T08:08:14.687Z,23.00
2018-03-15T08:18:27.467Z,23.00
2018-03-15T08:28:39.159Z,23.00
2018-03-15T08:38:49.137Z,23.10
2018-03-15T08:48:58.145Z,23.10
2018-03-15T08:59:08.944Z,23.20
2018-03-15T09:09:26.339Z,23.20
2018-03-15T09:19:36.604Z,23.20
2018-03-15T09:29:46.048Z,23.30
2018-03-15T09:40:01.594Z,23.30
2018-03-15T09:50:16.945Z,23.30
2018-03-15T10:00:31.136Z,23.30
2018-03-15T10:10:42.026Z,23.40
2018-03-15T10:20:51.041Z,23.30
2018-03-15T10:31:04.810Z,23.40
2018-03-15T10:41:14.297Z,23.30
2018-03-15T10:51:31.022Z,23.40
2018-03-15T11:01:44.558Z,23.40
2018-03-15T11:12:02.657Z,23.40
2018-03-15T11:22:14.026Z,23.40
2018-03-15T11:32:28.585Z,23.40
2018-03-15T11:42:38.206Z,23.40
2018-03-15T11:52:56.056Z,23.40
2018-03-15T12:03:07.973Z,23.40
2018-03-15T12:13:20.871Z,23.40
2018-03-15T12:23:32.103Z,23.40
2018-03-15T12:33:41.925Z,23.40
2018-03-15T12:43:52.265Z,23.40
2018-03-15T12:54:05.398Z,23.40
2018-03-15T13:04:15.430Z,23.40
2018-03-15T13:14:27.246Z,23.40
2018-03-15T13:24:40.334Z,23.40
2018-03-15T13:34:49.785Z,23.40
2018-03-15T13:45:04.706Z,23.40
2018-03-15T13:55:22.123Z,23.40
2018-03-15T14:05:35.654Z,23.40
2018-03-15T14:15:49.269Z,23.40
2018-03-15T14:25:57.530Z,23.40
2018-03-15T14:36:07.607Z,23.40
2018-03-15T14:46:18.690Z,23.40
2018-03-15T14:56:31.871Z,23.40
2018-03-15T15:06:43.613Z,23.30
2018-03-15T15:16:54.150Z,23.30
2018-03-15T15:27:08.763Z,23.30
2018-03-15T15:37:17.559Z,23.30
2018-03-15T15:47:27.418Z,23.30
2018-03-15T15:57:39.687Z,23.30
2018-03-15T16:07:48.091Z,23.30
2018-03-15T16:32:25.185Z,23.30
2018-03-15T16:42:34.864Z,23.30
2018-03-15T16:52:43.513Z,23.20
2018-03-15T17:02:53.621Z,23.20
2018-03-15T17:13:09.512Z,23.20
2018-03-15T17:23:17.527Z,23.20
2018-03-15T17:33:26.992Z,23.20
2018-03-15T17:43:36.119Z,23.10
2018-03-15T17:53:49.265Z,23.10
2018-03-15T18:03:58.751Z,23.00
2018-03-15T18:14:07.167Z,23.10
2018-03-15T18:24:16.572Z,23.00
2018-03-15T18:34:25.663Z,23.00
2018-03-15T18:44:33.538Z,23.00
2018-03-15T18:54:44.888Z,23.00
2018-03-15T19:04:55.288Z,22.90
2018-03-15T19:15:04.973Z,22.90
2018-03-15T19:25:15.825Z,22.90
2018-03-15T19:35:27.458Z,22.80
2018-03-15T19:45:35.201Z,22.90
2018-03-15T19:55:49.814Z,22.80
2018-03-15T20:06:00.654Z,22.80
2018-03-15T20:16:11.916Z,22.70
2018-03-15T20:26:21.464Z,22.70
2018-03-15T20:36:29.504Z,22.70
2018-03-15T20:46:42.196Z,22.70
2018-03-15T20:56:54.987Z,22.70
2018-03-15T21:07:06.436Z,22.70
2018-03-15T21:17:19.524Z,22.60
2018-03-15T21:27:28.774Z,22.60
2018-03-15T21:37:37.266Z,22.60
2018-03-15T21:47:46.820Z,22.50
2018-03-15T21:57:56.252Z,22.50
2018-03-15T22:08:04.886Z,22.50
2018-03-15T22:18:20.306Z,22.40
2018-03-15T22:28:30.222Z,22.40
2018-03-15T22:38:39.060Z,22.40
2018-03-15T22:48:47.971Z,22.40
2018-03-15T22:58:58.774Z,22.30
2018-03-15T23:09:07.840Z,22.30
2018-03-15T23:19:26.138Z,22.30
2018-03-15T23:29:38.221Z,22.30
2018-03-15T23:39:47.836Z,22.30
2018-03-15T23:49:57.386Z,22.30
